sensor_id;sensor_type;location;lat;lon;timestamp;P1;durP1;ratioP1;P2;durP2;ratioP2
10303;SDS011;5197;48.152;8.590;2023-07-31T00:02:18;2.17;;;1.80;;
10303;SDS011;5197;48.152;8.590;2023-07-31T00:04:45;5.00;;;2.00;;
10303;SDS011;5197;48.152;8.590;2023-07-31T00:07:11;3.00;;;1.93;;
10303;SDS011;5197;48.152;8.590;2023-07-31T00:09:38;2.50;;;1.70;;
10303;SDS011;5197;48.152;8.590;2023-07-31T00:12:05;2.47;;;1.67;;
10303;SDS011;5197;48.152;8.590;2023-07-31T00:14:32;2.07;;;1.83;;
10303;SDS011;5197;48.152;8.590;2023-07-31T00:16:59;1.93;;;1.67;;
10303;SDS011;5197;48.152;8.590;2023-07-31T00:19:26;2.23;;;1.70;;
10303;SDS011;5197;48.152;8.590;2023-07-31T00:21:53;4.67;;;1.93;;
10303;SDS011;5197;48.152;8.590;2023-07-31T00:24:20;1.87;;;1.77;;
10303;SDS011;5197;48.152;8.590;2023-07-31T00:26:46;2.83;;;1.77;;
10303;SDS011;5197;48.152;8.590;2023-07-31T00:29:13;4.77;;;1.67;;
10303;SDS011;5197;48.152;8.590;2023-07-31T00:31:40;2.33;;;1.87;;
10303;SDS011;5197;48.152;8.590;2023-07-31T00:34:07;2.33;;;1.77;;
10303;SDS011;5197;48.152;8.590;2023-07-31T00:36:34;3.17;;;1.83;;
10303;SDS011;5197;48.152;8.590;2023-07-31T00:39:01;2.77;;;1.70;;
10303;SDS011;5197;48.152;8.590;2023-07-31T00:41:27;5.70;;;2.10;;
10303;SDS011;5197;48.152;8.590;2023-07-31T00:43:54;5.50;;;2.00;;
10303;SDS011;5197;48.152;8.590;2023-07-31T00:46:21;3.23;;;1.87;;
10303;SDS011;5197;48.152;8.590;2023-07-31T00:48:48;2.70;;;1.60;;
10303;SDS011;5197;48.152;8.590;2023-07-31T00:51:15;1.93;;;1.73;;
10303;SDS011;5197;48.152;8.590;2023-07-31T00:53:42;1.60;;;1.50;;
10303;SDS011;5197;48.152;8.590;2023-07-31T00:56:10;2.70;;;1.73;;
10303;SDS011;5197;48.152;8.590;2023-07-31T00:58:37;3.53;;;2.03;;
10303;SDS011;5197;48.152;8.590;2023-07-31T01:01:04;2.13;;;1.73;;
10303;SDS011;5197;48.152;8.590;2023-07-31T01:03:31;3.13;;;1.60;;
10303;SDS011;5197;48.152;8.590;2023-07-31T01:11:30;2.77;;;1.80;;
10303;SDS011;5197;48.152;8.590;2023-07-31T01:14:39;2.87;;;1.93;;
10303;SDS011;5197;48.152;8.590;2023-07-31T01:17:05;4.57;;;1.60;;
10303;SDS011;5197;48.152;8.590;2023-07-31T01:19:32;4.03;;;1.70;;
10303;SDS011;5197;48.152;8.590;2023-07-31T01:27:21;4.50;;;1.90;;
10303;SDS011;5197;48.152;8.590;2023-07-31T01:30:02;3.83;;;1.47;;
10303;SDS011;5197;48.152;8.590;2023-07-31T01:32:43;2.33;;;1.70;;
10303;SDS011;5197;48.152;8.590;2023-07-31T01:35:12;3.47;;;1.70;;
10303;SDS011;5197;48.152;8.590;2023-07-31T01:37:39;2.80;;;1.87;;
10303;SDS011;5197;48.152;8.590;2023-07-31T01:40:06;2.30;;;1.50;;
10303;SDS011;5197;48.152;8.590;2023-07-31T01:42:33;2.27;;;1.80;;
10303;SDS011;5197;48.152;8.590;2023-07-31T01:45:00;5.13;;;2.03;;
10303;SDS011;5197;48.152;8.590;2023-07-31T01:47:27;3.33;;;2.00;;
10303;SDS011;5197;48.152;8.590;2023-07-31T01:49:54;5.20;;;2.00;;
10303;SDS011;5197;48.152;8.590;2023-07-31T01:52:21;3.67;;;2.17;;
10303;SDS011;5197;48.152;8.590;2023-07-31T01:54:48;2.50;;;2.10;;
10303;SDS011;5197;48.152;8.590;2023-07-31T01:57:14;2.17;;;1.97;;
10303;SDS011;5197;48.152;8.590;2023-07-31T01:59:41;2.30;;;2.10;;
10303;SDS011;5197;48.152;8.590;2023-07-31T02:02:08;2.73;;;1.83;;
10303;SDS011;5197;48.152;8.590;2023-07-31T02:04:35;2.90;;;2.03;;
10303;SDS011;5197;48.152;8.590;2023-07-31T02:07:02;3.33;;;2.00;;
10303;SDS011;5197;48.152;8.590;2023-07-31T02:09:29;2.37;;;1.93;;
10303;SDS011;5197;48.152;8.590;2023-07-31T02:11:56;2.13;;;1.93;;
10303;SDS011;5197;48.152;8.590;2023-07-31T02:14:23;2.50;;;2.10;;
10303;SDS011;5197;48.152;8.590;2023-07-31T02:16:50;2.47;;;1.90;;
10303;SDS011;5197;48.152;8.590;2023-07-31T02:19:17;2.23;;;1.70;;
10303;SDS011;5197;48.152;8.590;2023-07-31T02:21:44;3.47;;;2.13;;
10303;SDS011;5197;48.152;8.590;2023-07-31T02:24:10;2.70;;;1.80;;
10303;SDS011;5197;48.152;8.590;2023-07-31T02:26:37;4.80;;;2.00;;
10303;SDS011;5197;48.152;8.590;2023-07-31T02:29:04;2.43;;;1.70;;
10303;SDS011;5197;48.152;8.590;2023-07-31T02:31:31;3.27;;;1.87;;
10303;SDS011;5197;48.152;8.590;2023-07-31T02:33:58;1.80;;;1.70;;
10303;SDS011;5197;48.152;8.590;2023-07-31T02:36:25;3.20;;;2.00;;
10303;SDS011;5197;48.152;8.590;2023-07-31T02:38:51;2.40;;;1.70;;
10303;SDS011;5197;48.152;8.590;2023-07-31T02:41:18;3.10;;;2.00;;
10303;SDS011;5197;48.152;8.590;2023-07-31T02:43:45;3.33;;;1.73;;
10303;SDS011;5197;48.152;8.590;2023-07-31T02:46:12;1.90;;;1.67;;
10303;SDS011;5197;48.152;8.590;2023-07-31T02:48:39;3.20;;;1.90;;
10303;SDS011;5197;48.152;8.590;2023-07-31T02:51:06;2.27;;;2.07;;
10303;SDS011;5197;48.152;8.590;2023-07-31T02:53:32;2.83;;;2.03;;
10303;SDS011;5197;48.152;8.590;2023-07-31T02:55:59;1.93;;;1.60;;
10303;SDS011;5197;48.152;8.590;2023-07-31T02:58:26;3.77;;;1.70;;
10303;SDS011;5197;48.152;8.590;2023-07-31T03:00:53;2.10;;;1.80;;
10303;SDS011;5197;48.152;8.590;2023-07-31T03:03:20;2.73;;;1.83;;
10303;SDS011;5197;48.152;8.590;2023-07-31T03:05:47;3.23;;;1.93;;
10303;SDS011;5197;48.152;8.590;2023-07-31T03:08:14;4.67;;;1.70;;
10303;SDS011;5197;48.152;8.590;2023-07-31T03:10:40;5.30;;;2.00;;
10303;SDS011;5197;48.152;8.590;2023-07-31T03:13:07;2.10;;;1.93;;
10303;SDS011;5197;48.152;8.590;2023-07-31T03:15:34;2.53;;;2.07;;
10303;SDS011;5197;48.152;8.590;2023-07-31T03:18:01;3.57;;;1.87;;
10303;SDS011;5197;48.152;8.590;2023-07-31T03:20:28;3.13;;;2.17;;
10303;SDS011;5197;48.152;8.590;2023-07-31T03:22:54;2.27;;;1.93;;
10303;SDS011;5197;48.152;8.590;2023-07-31T03:25:21;2.87;;;1.87;;
10303;SDS011;5197;48.152;8.590;2023-07-31T03:27:48;2.13;;;1.90;;
10303;SDS011;5197;48.152;8.590;2023-07-31T03:30:15;2.77;;;2.20;;
10303;SDS011;5197;48.152;8.590;2023-07-31T03:32:42;3.67;;;2.30;;
10303;SDS011;5197;48.152;8.590;2023-07-31T03:35:09;2.70;;;2.17;;
10303;SDS011;5197;48.152;8.590;2023-07-31T03:37:35;5.27;;;2.40;;
10303;SDS011;5197;48.152;8.590;2023-07-31T03:40:02;4.57;;;2.40;;
10303;SDS011;5197;48.152;8.590;2023-07-31T03:42:30;3.70;;;2.50;;
10303;SDS011;5197;48.152;8.590;2023-07-31T03:44:57;3.17;;;2.27;;
10303;SDS011;5197;48.152;8.590;2023-07-31T03:47:24;2.73;;;2.43;;
10303;SDS011;5197;48.152;8.590;2023-07-31T03:49:51;2.23;;;2.03;;
10303;SDS011;5197;48.152;8.590;2023-07-31T03:52:17;5.57;;;2.17;;
10303;SDS011;5197;48.152;8.590;2023-07-31T03:54:44;2.90;;;2.63;;
10303;SDS011;5197;48.152;8.590;2023-07-31T03:57:12;2.00;;;1.90;;
10303;SDS011;5197;48.152;8.590;2023-07-31T03:59:38;3.27;;;2.20;;
10303;SDS011;5197;48.152;8.590;2023-07-31T04:02:05;2.50;;;2.30;;
10303;SDS011;5197;48.152;8.590;2023-07-31T04:04:32;2.37;;;2.13;;
10303;SDS011;5197;48.152;8.590;2023-07-31T04:07:01;3.07;;;1.97;;
10303;SDS011;5197;48.152;8.590;2023-07-31T04:09:28;3.30;;;2.13;;
10303;SDS011;5197;48.152;8.590;2023-07-31T04:11:55;2.90;;;2.33;;
10303;SDS011;5197;48.152;8.590;2023-07-31T04:14:22;4.17;;;2.20;;
10303;SDS011;5197;48.152;8.590;2023-07-31T04:16:50;2.97;;;2.17;;
10303;SDS011;5197;48.152;8.590;2023-07-31T04:19:17;4.13;;;2.33;;
10303;SDS011;5197;48.152;8.590;2023-07-31T04:21:43;3.27;;;2.10;;
10303;SDS011;5197;48.152;8.590;2023-07-31T04:24:10;4.47;;;2.30;;
10303;SDS011;5197;48.152;8.590;2023-07-31T04:26:37;2.50;;;2.30;;
10303;SDS011;5197;48.152;8.590;2023-07-31T04:29:04;3.20;;;2.10;;
10303;SDS011;5197;48.152;8.590;2023-07-31T04:31:31;4.50;;;2.20;;
10303;SDS011;5197;48.152;8.590;2023-07-31T04:33:59;2.43;;;2.23;;
10303;SDS011;5197;48.152;8.590;2023-07-31T04:36:26;5.53;;;2.20;;
10303;SDS011;5197;48.152;8.590;2023-07-31T04:38:52;2.10;;;1.90;;
10303;SDS011;5197;48.152;8.590;2023-07-31T04:41:19;2.97;;;2.40;;
10303;SDS011;5197;48.152;8.590;2023-07-31T04:43:46;2.90;;;2.00;;
10303;SDS011;5197;48.152;8.590;2023-07-31T04:46:13;5.83;;;2.57;;
10303;SDS011;5197;48.152;8.590;2023-07-31T04:48:40;4.07;;;2.10;;
10303;SDS011;5197;48.152;8.590;2023-07-31T04:51:07;2.77;;;2.10;;
10303;SDS011;5197;48.152;8.590;2023-07-31T04:53:33;2.13;;;1.90;;
10303;SDS011;5197;48.152;8.590;2023-07-31T04:56:00;2.37;;;2.17;;
10303;SDS011;5197;48.152;8.590;2023-07-31T04:58:27;3.27;;;2.00;;
10303;SDS011;5197;48.152;8.590;2023-07-31T05:00:54;5.03;;;2.43;;
10303;SDS011;5197;48.152;8.590;2023-07-31T05:03:21;2.30;;;2.10;;
10303;SDS011;5197;48.152;8.590;2023-07-31T05:05:48;3.40;;;2.00;;
10303;SDS011;5197;48.152;8.590;2023-07-31T05:08:16;2.67;;;2.10;;
10303;SDS011;5197;48.152;8.590;2023-07-31T05:10:43;2.20;;;1.87;;
10303;SDS011;5197;48.152;8.590;2023-07-31T05:13:10;4.33;;;1.87;;
10303;SDS011;5197;48.152;8.590;2023-07-31T05:15:37;4.60;;;1.90;;
10303;SDS011;5197;48.152;8.590;2023-07-31T05:18:04;2.23;;;1.87;;
10303;SDS011;5197;48.152;8.590;2023-07-31T05:20:31;5.40;;;2.20;;
10303;SDS011;5197;48.152;8.590;2023-07-31T05:22:58;3.03;;;1.90;;
10303;SDS011;5197;48.152;8.590;2023-07-31T05:25:25;6.33;;;2.30;;
10303;SDS011;5197;48.152;8.590;2023-07-31T05:27:52;4.93;;;1.90;;
10303;SDS011;5197;48.152;8.590;2023-07-31T05:30:19;5.20;;;2.63;;
10303;SDS011;5197;48.152;8.590;2023-07-31T05:32:47;4.40;;;2.50;;
10303;SDS011;5197;48.152;8.590;2023-07-31T05:35:14;3.30;;;2.10;;
10303;SDS011;5197;48.152;8.590;2023-07-31T05:37:41;2.43;;;2.00;;
10303;SDS011;5197;48.152;8.590;2023-07-31T05:40:08;3.20;;;2.20;;
10303;SDS011;5197;48.152;8.590;2023-07-31T05:42:35;2.90;;;1.90;;
10303;SDS011;5197;48.152;8.590;2023-07-31T05:45:05;3.60;;;1.80;;
10303;SDS011;5197;48.152;8.590;2023-07-31T05:47:35;5.13;;;2.17;;
10303;SDS011;5197;48.152;8.590;2023-07-31T05:50:02;2.23;;;1.73;;
10303;SDS011;5197;48.152;8.590;2023-07-31T05:52:29;3.83;;;1.80;;
10303;SDS011;5197;48.152;8.590;2023-07-31T05:54:56;2.47;;;1.60;;
10303;SDS011;5197;48.152;8.590;2023-07-31T05:57:23;4.20;;;1.90;;
10303;SDS011;5197;48.152;8.590;2023-07-31T05:59:49;3.30;;;1.87;;
10303;SDS011;5197;48.152;8.590;2023-07-31T06:02:16;5.47;;;1.90;;
10303;SDS011;5197;48.152;8.590;2023-07-31T06:04:43;4.60;;;2.23;;
10303;SDS011;5197;48.152;8.590;2023-07-31T06:07:10;3.87;;;1.70;;
10303;SDS011;5197;48.152;8.590;2023-07-31T06:09:37;5.33;;;2.07;;
10303;SDS011;5197;48.152;8.590;2023-07-31T06:12:04;1.93;;;1.70;;
10303;SDS011;5197;48.152;8.590;2023-07-31T06:14:31;3.93;;;2.03;;
10303;SDS011;5197;48.152;8.590;2023-07-31T06:16:58;4.80;;;1.80;;
10303;SDS011;5197;48.152;8.590;2023-07-31T06:19:25;4.87;;;1.97;;
10303;SDS011;5197;48.152;8.590;2023-07-31T06:21:52;2.90;;;2.00;;
10303;SDS011;5197;48.152;8.590;2023-07-31T06:24:19;4.27;;;2.00;;
10303;SDS011;5197;48.152;8.590;2023-07-31T06:26:47;2.90;;;1.90;;
10303;SDS011;5197;48.152;8.590;2023-07-31T06:29:13;5.77;;;2.30;;
10303;SDS011;5197;48.152;8.590;2023-07-31T06:31:40;4.50;;;2.07;;
10303;SDS011;5197;48.152;8.590;2023-07-31T06:34:08;2.60;;;1.70;;
10303;SDS011;5197;48.152;8.590;2023-07-31T06:36:34;3.27;;;2.10;;
10303;SDS011;5197;48.152;8.590;2023-07-31T06:39:01;4.47;;;1.80;;
10303;SDS011;5197;48.152;8.590;2023-07-31T06:41:28;6.47;;;1.93;;
10303;SDS011;5197;48.152;8.590;2023-07-31T06:43:55;5.73;;;2.00;;
10303;SDS011;5197;48.152;8.590;2023-07-31T06:46:22;4.53;;;2.00;;
10303;SDS011;5197;48.152;8.590;2023-07-31T06:48:50;2.27;;;1.67;;
10303;SDS011;5197;48.152;8.590;2023-07-31T06:51:17;4.43;;;1.90;;
10303;SDS011;5197;48.152;8.590;2023-07-31T06:53:43;3.67;;;1.80;;
10303;SDS011;5197;48.152;8.590;2023-07-31T06:56:11;4.57;;;1.90;;
10303;SDS011;5197;48.152;8.590;2023-07-31T06:58:38;3.07;;;1.70;;
10303;SDS011;5197;48.152;8.590;2023-07-31T07:01:05;3.97;;;2.00;;
10303;SDS011;5197;48.152;8.590;2023-07-31T07:03:32;4.23;;;2.17;;
10303;SDS011;5197;48.152;8.590;2023-07-31T07:05:59;10.20;;;1.60;;
10303;SDS011;5197;48.152;8.590;2023-07-31T07:08:27;5.00;;;2.00;;
10303;SDS011;5197;48.152;8.590;2023-07-31T07:10:54;3.67;;;1.50;;
10303;SDS011;5197;48.152;8.590;2023-07-31T07:13:21;2.53;;;1.53;;
10303;SDS011;5197;48.152;8.590;2023-07-31T07:15:48;1.83;;;1.67;;
10303;SDS011;5197;48.152;8.590;2023-07-31T07:18:16;4.50;;;1.60;;
10303;SDS011;5197;48.152;8.590;2023-07-31T07:20:47;4.30;;;1.90;;
10303;SDS011;5197;48.152;8.590;2023-07-31T07:23:18;3.67;;;1.70;;
10303;SDS011;5197;48.152;8.590;2023-07-31T07:25:45;2.10;;;1.60;;
10303;SDS011;5197;48.152;8.590;2023-07-31T07:28:13;3.03;;;1.67;;
10303;SDS011;5197;48.152;8.590;2023-07-31T07:30:40;3.40;;;1.80;;
10303;SDS011;5197;48.152;8.590;2023-07-31T07:33:07;3.03;;;1.70;;
10303;SDS011;5197;48.152;8.590;2023-07-31T07:35:34;2.20;;;2.00;;
10303;SDS011;5197;48.152;8.590;2023-07-31T07:38:02;3.57;;;1.70;;
10303;SDS011;5197;48.152;8.590;2023-07-31T07:40:29;2.97;;;1.60;;
10303;SDS011;5197;48.152;8.590;2023-07-31T07:42:56;2.53;;;1.80;;
10303;SDS011;5197;48.152;8.590;2023-07-31T07:45:23;4.80;;;1.87;;
10303;SDS011;5197;48.152;8.590;2023-07-31T07:47:50;4.30;;;1.67;;
10303;SDS011;5197;48.152;8.590;2023-07-31T07:50:17;3.30;;;1.70;;
10303;SDS011;5197;48.152;8.590;2023-07-31T07:52:44;3.17;;;1.80;;
10303;SDS011;5197;48.152;8.590;2023-07-31T07:55:11;4.43;;;2.10;;
10303;SDS011;5197;48.152;8.590;2023-07-31T07:57:38;2.33;;;1.73;;
10303;SDS011;5197;48.152;8.590;2023-07-31T08:00:05;7.13;;;2.00;;
10303;SDS011;5197;48.152;8.590;2023-07-31T08:02:32;1.90;;;1.70;;
10303;SDS011;5197;48.152;8.590;2023-07-31T08:04:59;3.10;;;2.50;;
10303;SDS011;5197;48.152;8.590;2023-07-31T08:07:26;2.10;;;1.80;;
10303;SDS011;5197;48.152;8.590;2023-07-31T08:09:53;5.07;;;2.00;;
10303;SDS011;5197;48.152;8.590;2023-07-31T08:12:20;2.03;;;1.73;;
10303;SDS011;5197;48.152;8.590;2023-07-31T08:14:46;2.63;;;1.40;;
10303;SDS011;5197;48.152;8.590;2023-07-31T08:17:13;4.87;;;1.80;;
10303;SDS011;5197;48.152;8.590;2023-07-31T08:19:40;3.00;;;1.67;;
10303;SDS011;5197;48.152;8.590;2023-07-31T08:22:07;4.95;;;1.75;;
10303;SDS011;5197;48.152;8.590;2023-07-31T08:24:34;3.80;;;1.57;;
10303;SDS011;5197;48.152;8.590;2023-07-31T08:27:01;3.67;;;1.80;;
10303;SDS011;5197;48.152;8.590;2023-07-31T08:29:28;2.92;;;1.60;;
10303;SDS011;5197;48.152;8.590;2023-07-31T08:31:54;2.47;;;1.60;;
10303;SDS011;5197;48.152;8.590;2023-07-31T08:34:21;2.85;;;1.52;;
10303;SDS011;5197;48.152;8.590;2023-07-31T08:36:48;4.07;;;1.67;;
10303;SDS011;5197;48.152;8.590;2023-07-31T08:39:15;1.95;;;1.38;;
10303;SDS011;5197;48.152;8.590;2023-07-31T08:41:42;8.77;;;1.77;;
10303;SDS011;5197;48.152;8.590;2023-07-31T08:44:09;2.47;;;1.52;;
10303;SDS011;5197;48.152;8.590;2023-07-31T08:46:37;2.45;;;1.85;;
10303;SDS011;5197;48.152;8.590;2023-07-31T08:49:06;3.78;;;2.33;;
10303;SDS011;5197;48.152;8.590;2023-07-31T08:51:34;2.95;;;1.88;;
10303;SDS011;5197;48.152;8.590;2023-07-31T08:54:01;4.40;;;2.10;;
10303;SDS011;5197;48.152;8.590;2023-07-31T08:56:31;4.82;;;1.88;;
10303;SDS011;5197;48.152;8.590;2023-07-31T08:58:59;3.67;;;1.80;;
10303;SDS011;5197;48.152;8.590;2023-07-31T09:01:30;2.83;;;1.55;;
10303;SDS011;5197;48.152;8.590;2023-07-31T09:04:06;2.22;;;1.60;;
10303;SDS011;5197;48.152;8.590;2023-07-31T09:06:37;3.10;;;1.77;;
10303;SDS011;5197;48.152;8.590;2023-07-31T09:09:05;5.10;;;2.17;;
10303;SDS011;5197;48.152;8.590;2023-07-31T09:11:32;3.58;;;1.58;;
10303;SDS011;5197;48.152;8.590;2023-07-31T09:13:59;2.28;;;1.70;;
10303;SDS011;5197;48.152;8.590;2023-07-31T09:16:31;3.95;;;2.00;;
10303;SDS011;5197;48.152;8.590;2023-07-31T09:18:59;2.22;;;2.03;;
10303;SDS011;5197;48.152;8.590;2023-07-31T09:21:28;3.38;;;1.70;;
10303;SDS011;5197;48.152;8.590;2023-07-31T09:23:55;4.18;;;2.00;;
10303;SDS011;5197;48.152;8.590;2023-07-31T09:26:28;2.53;;;1.42;;
10303;SDS011;5197;48.152;8.590;2023-07-31T09:29:00;6.03;;;1.75;;
10303;SDS011;5197;48.152;8.590;2023-07-31T09:34:08;4.50;;;1.95;;
10303;SDS011;5197;48.152;8.590;2023-07-31T09:36:47;3.63;;;2.00;;
10303;SDS011;5197;48.152;8.590;2023-07-31T09:39:16;2.13;;;1.85;;
10303;SDS011;5197;48.152;8.590;2023-07-31T09:41:46;2.33;;;1.73;;
10303;SDS011;5197;48.152;8.590;2023-07-31T09:44:19;2.55;;;1.95;;
10303;SDS011;5197;48.152;8.590;2023-07-31T09:46:46;2.22;;;1.67;;
10303;SDS011;5197;48.152;8.590;2023-07-31T09:49:13;3.40;;;2.05;;
10303;SDS011;5197;48.152;8.590;2023-07-31T09:51:42;2.55;;;1.83;;
10303;SDS011;5197;48.152;8.590;2023-07-31T09:54:09;2.03;;;1.83;;
10303;SDS011;5197;48.152;8.590;2023-07-31T09:56:44;3.72;;;1.95;;
10303;SDS011;5197;48.152;8.590;2023-07-31T09:59:14;6.15;;;2.20;;
10303;SDS011;5197;48.152;8.590;2023-07-31T10:01:43;4.10;;;1.80;;
10303;SDS011;5197;48.152;8.590;2023-07-31T10:04:12;3.40;;;1.83;;
10303;SDS011;5197;48.152;8.590;2023-07-31T10:06:41;3.03;;;1.60;;
10303;SDS011;5197;48.152;8.590;2023-07-31T10:09:10;3.45;;;1.95;;
10303;SDS011;5197;48.152;8.590;2023-07-31T10:11:42;4.82;;;2.22;;
10303;SDS011;5197;48.152;8.590;2023-07-31T10:14:19;3.17;;;2.00;;
10303;SDS011;5197;48.152;8.590;2023-07-31T10:16:47;1.73;;;1.60;;
10303;SDS011;5197;48.152;8.590;2023-07-31T10:19:15;2.08;;;1.48;;
10303;SDS011;5197;48.152;8.590;2023-07-31T10:21:44;2.55;;;1.90;;
10303;SDS011;5197;48.152;8.590;2023-07-31T10:24:12;1.88;;;1.70;;
10303;SDS011;5197;48.152;8.590;2023-07-31T10:26:41;2.92;;;1.50;;
10303;SDS011;5197;48.152;8.590;2023-07-31T10:29:13;3.88;;;1.88;;
10303;SDS011;5197;48.152;8.590;2023-07-31T10:31:42;1.85;;;1.67;;
10303;SDS011;5197;48.152;8.590;2023-07-31T10:34:09;2.95;;;1.70;;
10303;SDS011;5197;48.152;8.590;2023-07-31T10:36:36;3.40;;;1.83;;
10303;SDS011;5197;48.152;8.590;2023-07-31T10:39:04;5.25;;;1.70;;
10303;SDS011;5197;48.152;8.590;2023-07-31T10:41:51;2.03;;;1.58;;
10303;SDS011;5197;48.152;8.590;2023-07-31T10:44:17;2.55;;;1.60;;
10303;SDS011;5197;48.152;8.590;2023-07-31T10:46:47;2.75;;;1.60;;
10303;SDS011;5197;48.152;8.590;2023-07-31T10:49:13;1.65;;;1.45;;
10303;SDS011;5197;48.152;8.590;2023-07-31T10:51:47;3.03;;;1.58;;
10303;SDS011;5197;48.152;8.590;2023-07-31T10:54:15;1.35;;;1.25;;
10303;SDS011;5197;48.152;8.590;2023-07-31T10:56:45;3.60;;;1.92;;
10303;SDS011;5197;48.152;8.590;2023-07-31T10:59:13;2.38;;;1.67;;
10303;SDS011;5197;48.152;8.590;2023-07-31T11:01:53;3.13;;;1.77;;
10303;SDS011;5197;48.152;8.590;2023-07-31T11:04:24;2.97;;;1.85;;
10303;SDS011;5197;48.152;8.590;2023-07-31T11:06:55;1.50;;;1.40;;
10303;SDS011;5197;48.152;8.590;2023-07-31T11:09:29;2.13;;;1.50;;
10303;SDS011;5197;48.152;8.590;2023-07-31T11:11:58;5.95;;;1.88;;
10303;SDS011;5197;48.152;8.590;2023-07-31T11:14:25;1.70;;;1.60;;
10303;SDS011;5197;48.152;8.590;2023-07-31T11:16:52;3.50;;;1.80;;
10303;SDS011;5197;48.152;8.590;2023-07-31T11:19:23;2.00;;;1.73;;
10303;SDS011;5197;48.152;8.590;2023-07-31T11:21:52;2.42;;;1.75;;
10303;SDS011;5197;48.152;8.590;2023-07-31T11:24:19;2.20;;;1.80;;
10303;SDS011;5197;48.152;8.590;2023-07-31T11:26:51;3.25;;;1.60;;
10303;SDS011;5197;48.152;8.590;2023-07-31T11:29:18;1.90;;;1.80;;
10303;SDS011;5197;48.152;8.590;2023-07-31T11:31:46;2.85;;;2.17;;
10303;SDS011;5197;48.152;8.590;2023-07-31T11:34:15;2.97;;;2.00;;
10303;SDS011;5197;48.152;8.590;2023-07-31T11:36:52;4.25;;;2.58;;
10303;SDS011;5197;48.152;8.590;2023-07-31T11:39:22;2.30;;;2.08;;
10303;SDS011;5197;48.152;8.590;2023-07-31T11:41:49;1.92;;;1.83;;
10303;SDS011;5197;48.152;8.590;2023-07-31T11:44:16;2.47;;;2.20;;
10303;SDS011;5197;48.152;8.590;2023-07-31T11:46:56;3.83;;;2.13;;
10303;SDS011;5197;48.152;8.590;2023-07-31T11:49:23;2.78;;;2.50;;
10303;SDS011;5197;48.152;8.590;2023-07-31T11:51:50;2.80;;;2.60;;
10303;SDS011;5197;48.152;8.590;2023-07-31T11:54:17;2.08;;;1.88;;
10303;SDS011;5197;48.152;8.590;2023-07-31T11:56:44;3.85;;;2.10;;
10303;SDS011;5197;48.152;8.590;2023-07-31T11:59:11;3.65;;;2.38;;
10303;SDS011;5197;48.152;8.590;2023-07-31T12:01:39;2.38;;;2.08;;
10303;SDS011;5197;48.152;8.590;2023-07-31T12:04:06;2.65;;;2.20;;
10303;SDS011;5197;48.152;8.590;2023-07-31T12:06:34;2.75;;;2.13;;
10303;SDS011;5197;48.152;8.590;2023-07-31T12:09:05;2.42;;;2.22;;
10303;SDS011;5197;48.152;8.590;2023-07-31T12:11:45;2.65;;;2.42;;
10303;SDS011;5197;48.152;8.590;2023-07-31T12:14:26;3.00;;;2.55;;
10303;SDS011;5197;48.152;8.590;2023-07-31T12:16:56;3.13;;;2.47;;
10303;SDS011;5197;48.152;8.590;2023-07-31T12:19:27;2.63;;;2.42;;
10303;SDS011;5197;48.152;8.590;2023-07-31T12:21:56;2.97;;;2.78;;
10303;SDS011;5197;48.152;8.590;2023-07-31T12:24:25;2.67;;;2.47;;
10303;SDS011;5197;48.152;8.590;2023-07-31T12:26:52;2.33;;;2.13;;
10303;SDS011;5197;48.152;8.590;2023-07-31T12:29:21;2.20;;;2.00;;
10303;SDS011;5197;48.152;8.590;2023-07-31T12:31:48;2.90;;;2.60;;
10303;SDS011;5197;48.152;8.590;2023-07-31T12:34:18;2.45;;;2.25;;
10303;SDS011;5197;48.152;8.590;2023-07-31T12:36:47;1.98;;;1.83;;
10303;SDS011;5197;48.152;8.590;2023-07-31T12:39:17;2.53;;;2.33;;
10303;SDS011;5197;48.152;8.590;2023-07-31T12:41:44;3.35;;;2.60;;
10303;SDS011;5197;48.152;8.590;2023-07-31T12:44:11;3.40;;;2.47;;
10303;SDS011;5197;48.152;8.590;2023-07-31T12:46:37;2.70;;;2.00;;
10303;SDS011;5197;48.152;8.590;2023-07-31T12:49:05;3.50;;;2.60;;
10303;SDS011;5197;48.152;8.590;2023-07-31T12:51:32;2.53;;;2.30;;
10303;SDS011;5197;48.152;8.590;2023-07-31T12:53:59;4.20;;;2.22;;
10303;SDS011;5197;48.152;8.590;2023-07-31T12:56:25;3.25;;;2.45;;
10303;SDS011;5197;48.152;8.590;2023-07-31T12:58:52;2.67;;;2.47;;
10303;SDS011;5197;48.152;8.590;2023-07-31T13:01:19;3.28;;;2.80;;
10303;SDS011;5197;48.152;8.590;2023-07-31T13:03:46;2.70;;;2.55;;
10303;SDS011;5197;48.152;8.590;2023-07-31T13:06:13;2.40;;;2.28;;
10303;SDS011;5197;48.152;8.590;2023-07-31T13:08:40;2.95;;;2.47;;
10303;SDS011;5197;48.152;8.590;2023-07-31T13:11:07;2.80;;;2.60;;
10303;SDS011;5197;48.152;8.590;2023-07-31T13:13:34;4.00;;;2.78;;
10303;SDS011;5197;48.152;8.590;2023-07-31T13:16:01;2.53;;;2.33;;
10303;SDS011;5197;48.152;8.590;2023-07-31T13:18:27;3.67;;;3.22;;
10303;SDS011;5197;48.152;8.590;2023-07-31T13:20:54;4.10;;;2.75;;
10303;SDS011;5197;48.152;8.590;2023-07-31T13:23:21;3.13;;;2.58;;
10303;SDS011;5197;48.152;8.590;2023-07-31T13:25:48;3.00;;;2.53;;
10303;SDS011;5197;48.152;8.590;2023-07-31T13:28:15;3.08;;;2.25;;
10303;SDS011;5197;48.152;8.590;2023-07-31T13:30:42;2.78;;;2.58;;
10303;SDS011;5197;48.152;8.590;2023-07-31T13:33:09;5.15;;;2.33;;
10303;SDS011;5197;48.152;8.590;2023-07-31T13:35:56;2.35;;;2.10;;
10303;SDS011;5197;48.152;8.590;2023-07-31T13:38:23;4.13;;;3.05;;
10303;SDS011;5197;48.152;8.590;2023-07-31T13:40:49;4.18;;;2.78;;
10303;SDS011;5197;48.152;8.590;2023-07-31T13:43:16;2.67;;;2.45;;
10303;SDS011;5197;48.152;8.590;2023-07-31T13:45:43;4.78;;;2.53;;
10303;SDS011;5197;48.152;8.590;2023-07-31T13:48:10;2.70;;;2.50;;
10303;SDS011;5197;48.152;8.590;2023-07-31T13:50:37;2.65;;;2.40;;
10303;SDS011;5197;48.152;8.590;2023-07-31T13:53:04;3.08;;;2.25;;
10303;SDS011;5197;48.152;8.590;2023-07-31T13:55:30;3.47;;;2.40;;
10303;SDS011;5197;48.152;8.590;2023-07-31T13:57:57;2.72;;;2.40;;
10303;SDS011;5197;48.152;8.590;2023-07-31T14:00:24;2.25;;;2.05;;
10303;SDS011;5197;48.152;8.590;2023-07-31T14:02:51;3.28;;;2.28;;
10303;SDS011;5197;48.152;8.590;2023-07-31T14:05:18;2.38;;;2.17;;
10303;SDS011;5197;48.152;8.590;2023-07-31T14:07:45;2.75;;;2.30;;
10303;SDS011;5197;48.152;8.590;2023-07-31T14:10:12;2.42;;;1.98;;
10303;SDS011;5197;48.152;8.590;2023-07-31T14:12:39;2.72;;;2.40;;
10303;SDS011;5197;48.152;8.590;2023-07-31T14:15:09;2.42;;;2.22;;
10303;SDS011;5197;48.152;8.590;2023-07-31T14:17:36;3.83;;;2.53;;
10303;SDS011;5197;48.152;8.590;2023-07-31T14:20:03;2.38;;;2.17;;
10303;SDS011;5197;48.152;8.590;2023-07-31T14:22:31;4.45;;;2.53;;
10303;SDS011;5197;48.152;8.590;2023-07-31T14:25:00;2.35;;;2.15;;
10303;SDS011;5197;48.152;8.590;2023-07-31T14:27:27;2.53;;;2.33;;
10303;SDS011;5197;48.152;8.590;2023-07-31T14:29:54;2.70;;;2.35;;
10303;SDS011;5197;48.152;8.590;2023-07-31T14:32:22;2.38;;;2.15;;
10303;SDS011;5197;48.152;8.590;2023-07-31T14:34:51;5.18;;;2.55;;
10303;SDS011;5197;48.152;8.590;2023-07-31T14:37:18;2.53;;;2.35;;
10303;SDS011;5197;48.152;8.590;2023-07-31T14:39:45;2.88;;;2.63;;
10303;SDS011;5197;48.152;8.590;2023-07-31T14:42:12;2.58;;;2.38;;
10303;SDS011;5197;48.152;8.590;2023-07-31T14:44:39;4.15;;;2.40;;
10303;SDS011;5197;48.152;8.590;2023-07-31T14:47:06;2.50;;;2.30;;
10303;SDS011;5197;48.152;8.590;2023-07-31T14:49:32;3.53;;;2.53;;
10303;SDS011;5197;48.152;8.590;2023-07-31T14:51:59;2.60;;;2.40;;
10303;SDS011;5197;48.152;8.590;2023-07-31T14:54:26;2.42;;;2.22;;
10303;SDS011;5197;48.152;8.590;2023-07-31T14:56:53;2.75;;;2.55;;
10303;SDS011;5197;48.152;8.590;2023-07-31T14:59:19;3.67;;;2.55;;
10303;SDS011;5197;48.152;8.590;2023-07-31T15:01:46;2.67;;;2.47;;
10303;SDS011;5197;48.152;8.590;2023-07-31T15:04:13;2.40;;;2.20;;
10303;SDS011;5197;48.152;8.590;2023-07-31T15:06:40;3.83;;;2.30;;
10303;SDS011;5197;48.152;8.590;2023-07-31T15:09:07;2.50;;;2.30;;
10303;SDS011;5197;48.152;8.590;2023-07-31T15:11:34;2.17;;;2.00;;
10303;SDS011;5197;48.152;8.590;2023-07-31T15:14:01;2.53;;;2.17;;
10303;SDS011;5197;48.152;8.590;2023-07-31T15:16:28;2.50;;;2.30;;
10303;SDS011;5197;48.152;8.590;2023-07-31T15:18:57;2.45;;;2.25;;